sensor_id;sensor_type;location;lat;lon;timestamp;P1;durP1;ratioP1;P2;durP2;ratioP2
20443;SDS011;10381;53.730;10.010;2022-12-07T00:03:43;837.40;;;728.50;;
20443;SDS011;10381;53.730;10.010;2022-12-07T00:07:44;834.92;;;726.17;;
20443;SDS011;10381;53.730;10.010;2022-12-07T00:11:44;837.47;;;725.43;;
20443;SDS011;10381;53.730;10.010;2022-12-07T00:15:49;825.63;;;724.28;;
20443;SDS011;10381;53.730;10.010;2022-12-07T00:19:49;834.70;;;732.03;;
20443;SDS011;10381;53.730;10.010;2022-12-07T00:23:50;843.83;;;722.83;;
20443;SDS011;10381;53.730;10.010;2022-12-07T00:27:52;827.17;;;725.90;;
20443;SDS011;10381;53.730;10.010;2022-12-07T00:31:55;827.83;;;721.70;;
20443;SDS011;10381;53.730;10.010;2022-12-07T00:35:56;825.58;;;724.60;;
20443;SDS011;10381;53.730;10.010;2022-12-07T00:39:57;809.03;;;717.55;;
20443;SDS011;10381;53.730;10.010;2022-12-07T00:43:58;814.17;;;718.97;;
20443;SDS011;10381;53.730;10.010;2022-12-07T00:47:58;816.60;;;725.65;;
20443;SDS011;10381;53.730;10.010;2022-12-07T00:51:58;805.43;;;715.67;;
20443;SDS011;10381;53.730;10.010;2022-12-07T00:56:04;796.23;;;708.70;;
20443;SDS011;10381;53.730;10.010;2022-12-07T01:00:06;785.40;;;699.53;;
20443;SDS011;10381;53.730;10.010;2022-12-07T01:04:07;785.50;;;700.30;;
20443;SDS011;10381;53.730;10.010;2022-12-07T01:08:07;765.25;;;683.80;;
20443;SDS011;10381;53.730;10.010;2022-12-07T01:12:08;765.45;;;683.58;;
20443;SDS011;10381;53.730;10.010;2022-12-07T01:16:10;758.00;;;677.83;;
20443;SDS011;10381;53.730;10.010;2022-12-07T01:20:13;747.90;;;670.13;;
20443;SDS011;10381;53.730;10.010;2022-12-07T01:24:14;742.63;;;664.72;;
20443;SDS011;10381;53.730;10.010;2022-12-07T01:28:14;730.55;;;654.25;;
20443;SDS011;10381;53.730;10.010;2022-12-07T01:32:14;713.60;;;639.90;;
20443;SDS011;10381;53.730;10.010;2022-12-07T01:36:16;703.93;;;631.97;;
20443;SDS011;10381;53.730;10.010;2022-12-07T01:40:18;706.85;;;635.65;;
20443;SDS011;10381;53.730;10.010;2022-12-07T01:48:32;703.28;;;632.00;;
20443;SDS011;10381;53.730;10.010;2022-12-07T01:52:37;667.47;;;600.97;;
20443;SDS011;10381;53.730;10.010;2022-12-07T01:56:40;657.97;;;593.45;;
20443;SDS011;10381;53.730;10.010;2022-12-07T02:00:46;669.00;;;604.30;;
20443;SDS011;10381;53.730;10.010;2022-12-07T02:04:46;658.17;;;595.10;;
20443;SDS011;10381;53.730;10.010;2022-12-07T02:08:47;667.67;;;603.42;;
20443;SDS011;10381;53.730;10.010;2022-12-07T02:12:49;669.65;;;605.35;;
20443;SDS011;10381;53.730;10.010;2022-12-07T02:21:20;653.40;;;590.97;;
20443;SDS011;10381;53.730;10.010;2022-12-07T02:29:38;645.70;;;584.33;;
20443;SDS011;10381;53.730;10.010;2022-12-07T02:33:46;650.83;;;588.60;;
20443;SDS011;10381;53.730;10.010;2022-12-07T02:37:59;645.55;;;583.95;;
20443;SDS011;10381;53.730;10.010;2022-12-07T02:42:02;652.35;;;591.05;;
20443;SDS011;10381;53.730;10.010;2022-12-07T02:46:10;635.35;;;575.95;;
20443;SDS011;10381;53.730;10.010;2022-12-07T02:50:17;648.05;;;588.20;;
20443;SDS011;10381;53.730;10.010;2022-12-07T02:54:20;642.17;;;583.63;;
20443;SDS011;10381;53.730;10.010;2022-12-07T03:06:53;615.53;;;559.60;;
20443;SDS011;10381;53.730;10.010;2022-12-07T03:15:31;608.90;;;553.53;;
20443;SDS011;10381;53.730;10.010;2022-12-07T03:19:54;601.03;;;546.42;;
20443;SDS011;10381;53.730;10.010;2022-12-07T03:24:00;600.25;;;545.80;;
20443;SDS011;10381;53.730;10.010;2022-12-07T03:28:06;606.45;;;551.25;;
20443;SDS011;10381;53.730;10.010;2022-12-07T03:32:10;600.10;;;545.97;;
20443;SDS011;10381;53.730;10.010;2022-12-07T03:36:26;598.58;;;544.97;;
20443;SDS011;10381;53.730;10.010;2022-12-07T03:40:37;587.83;;;534.78;;
20443;SDS011;10381;53.730;10.010;2022-12-07T03:44:44;601.65;;;547.70;;
20443;SDS011;10381;53.730;10.010;2022-12-07T03:53:05;587.65;;;535.05;;
20443;SDS011;10381;53.730;10.010;2022-12-07T03:57:11;593.05;;;539.97;;
20443;SDS011;10381;53.730;10.010;2022-12-07T04:01:12;578.58;;;526.58;;
20443;SDS011;10381;53.730;10.010;2022-12-07T04:05:12;586.70;;;533.97;;
20443;SDS011;10381;53.730;10.010;2022-12-07T04:09:13;569.53;;;518.33;;
20443;SDS011;10381;53.730;10.010;2022-12-07T04:13:14;576.83;;;525.03;;
20443;SDS011;10381;53.730;10.010;2022-12-07T04:17:16;562.55;;;511.63;;
20443;SDS011;10381;53.730;10.010;2022-12-07T04:21:16;558.83;;;508.42;;
20443;SDS011;10381;53.730;10.010;2022-12-07T04:25:16;560.47;;;510.33;;
20443;SDS011;10381;53.730;10.010;2022-12-07T04:29:17;554.17;;;504.77;;
20443;SDS011;10381;53.730;10.010;2022-12-07T04:33:18;552.65;;;502.48;;
20443;SDS011;10381;53.730;10.010;2022-12-07T04:37:18;552.20;;;501.93;;
20443;SDS011;10381;53.730;10.010;2022-12-07T04:41:18;543.88;;;494.13;;
20443;SDS011;10381;53.730;10.010;2022-12-07T04:45:19;546.70;;;497.52;;
20443;SDS011;10381;53.730;10.010;2022-12-07T04:49:19;530.30;;;482.07;;
20443;SDS011;10381;53.730;10.010;2022-12-07T04:53:20;531.72;;;483.30;;
20443;SDS011;10381;53.730;10.010;2022-12-07T04:57:20;531.80;;;482.83;;
20443;SDS011;10381;53.730;10.010;2022-12-07T05:01:21;536.10;;;487.40;;
20443;SDS011;10381;53.730;10.010;2022-12-07T05:05:23;545.97;;;496.73;;
20443;SDS011;10381;53.730;10.010;2022-12-07T05:09:24;549.67;;;500.40;;
20443;SDS011;10381;53.730;10.010;2022-12-07T05:13:24;548.37;;;499.20;;
20443;SDS011;10381;53.730;10.010;2022-12-07T05:17:24;552.67;;;503.27;;
20443;SDS011;10381;53.730;10.010;2022-12-07T05:21:25;539.47;;;490.70;;
20443;SDS011;10381;53.730;10.010;2022-12-07T05:25:25;539.30;;;491.52;;
20443;SDS011;10381;53.730;10.010;2022-12-07T05:29:25;520.97;;;474.80;;
20443;SDS011;10381;53.730;10.010;2022-12-07T05:33:27;534.72;;;486.83;;
20443;SDS011;10381;53.730;10.010;2022-12-07T05:37:27;524.80;;;477.10;;
20443;SDS011;10381;53.730;10.010;2022-12-07T05:41:28;496.63;;;452.00;;
20443;SDS011;10381;53.730;10.010;2022-12-07T05:45:46;519.38;;;472.85;;
20443;SDS011;10381;53.730;10.010;2022-12-07T05:49:47;512.93;;;467.13;;
20443;SDS011;10381;53.730;10.010;2022-12-07T05:53:47;494.90;;;450.90;;
20443;SDS011;10381;53.730;10.010;2022-12-07T05:57:47;477.67;;;435.05;;
20443;SDS011;10381;53.730;10.010;2022-12-07T06:02:10;472.65;;;430.40;;
20443;SDS011;10381;53.730;10.010;2022-12-07T06:06:12;479.35;;;435.77;;
20443;SDS011;10381;53.730;10.010;2022-12-07T06:10:12;471.73;;;429.23;;
20443;SDS011;10381;53.730;10.010;2022-12-07T06:14:12;470.60;;;428.67;;
20443;SDS011;10381;53.730;10.010;2022-12-07T06:18:13;468.50;;;425.90;;
20443;SDS011;10381;53.730;10.010;2022-12-07T06:22:13;470.75;;;429.00;;
20443;SDS011;10381;53.730;10.010;2022-12-07T06:26:13;468.92;;;427.20;;
20443;SDS011;10381;53.730;10.010;2022-12-07T06:30:14;483.08;;;439.80;;
20443;SDS011;10381;53.730;10.010;2022-12-07T06:34:16;464.50;;;422.67;;
20443;SDS011;10381;53.730;10.010;2022-12-07T06:38:18;456.85;;;416.88;;
20443;SDS011;10381;53.730;10.010;2022-12-07T06:42:18;454.55;;;414.27;;
20443;SDS011;10381;53.730;10.010;2022-12-07T06:46:18;482.53;;;439.20;;
20443;SDS011;10381;53.730;10.010;2022-12-07T06:50:19;495.15;;;451.25;;
20443;SDS011;10381;53.730;10.010;2022-12-07T06:54:20;469.08;;;427.52;;
20443;SDS011;10381;53.730;10.010;2022-12-07T06:58:20;459.70;;;419.15;;
20443;SDS011;10381;53.730;10.010;2022-12-07T07:02:20;455.23;;;414.27;;
20443;SDS011;10381;53.730;10.010;2022-12-07T07:06:21;458.70;;;417.77;;
20443;SDS011;10381;53.730;10.010;2022-12-07T07:10:21;445.55;;;406.80;;
20443;SDS011;10381;53.730;10.010;2022-12-07T07:14:21;458.98;;;418.20;;
20443;SDS011;10381;53.730;10.010;2022-12-07T07:18:22;454.15;;;415.00;;
20443;SDS011;10381;53.730;10.010;2022-12-07T07:22:23;440.58;;;402.58;;
20443;SDS011;10381;53.730;10.010;2022-12-07T07:26:23;423.75;;;386.83;;
20443;SDS011;10381;53.730;10.010;2022-12-07T07:30:23;429.50;;;392.13;;
20443;SDS011;10381;53.730;10.010;2022-12-07T07:34:24;430.30;;;392.40;;
20443;SDS011;10381;53.730;10.010;2022-12-07T07:38:24;425.47;;;387.90;;
20443;SDS011;10381;53.730;10.010;2022-12-07T07:42:25;432.98;;;395.10;;
20443;SDS011;10381;53.730;10.010;2022-12-07T07:46:25;420.63;;;383.53;;
20443;SDS011;10381;53.730;10.010;2022-12-07T07:50:25;414.80;;;378.17;;
20443;SDS011;10381;53.730;10.010;2022-12-07T07:54:26;422.13;;;385.80;;
20443;SDS011;10381;53.730;10.010;2022-12-07T07:58:26;411.48;;;375.58;;
20443;SDS011;10381;53.730;10.010;2022-12-07T08:02:28;402.00;;;367.63;;
20443;SDS011;10381;53.730;10.010;2022-12-07T08:06:29;378.48;;;345.42;;
20443;SDS011;10381;53.730;10.010;2022-12-07T08:10:29;386.10;;;352.47;;
20443;SDS011;10381;53.730;10.010;2022-12-07T08:14:32;345.10;;;314.58;;
20443;SDS011;10381;53.730;10.010;2022-12-07T08:18:34;360.63;;;329.20;;
20443;SDS011;10381;53.730;10.010;2022-12-07T08:22:35;374.75;;;340.52;;
20443;SDS011;10381;53.730;10.010;2022-12-07T08:26:36;369.30;;;336.43;;
20443;SDS011;10381;53.730;10.010;2022-12-07T08:30:36;379.67;;;346.33;;
20443;SDS011;10381;53.730;10.010;2022-12-07T08:34:36;393.52;;;358.63;;
20443;SDS011;10381;53.730;10.010;2022-12-07T08:38:37;407.43;;;371.87;;
20443;SDS011;10381;53.730;10.010;2022-12-07T08:42:39;418.65;;;381.27;;
20443;SDS011;10381;53.730;10.010;2022-12-07T08:46:41;437.88;;;399.67;;
20443;SDS011;10381;53.730;10.010;2022-12-07T08:50:48;440.98;;;402.00;;
20443;SDS011;10381;53.730;10.010;2022-12-07T08:54:48;442.75;;;403.42;;
20443;SDS011;10381;53.730;10.010;2022-12-07T08:58:49;443.75;;;404.33;;
20443;SDS011;10381;53.730;10.010;2022-12-07T09:02:49;442.02;;;402.20;;
20443;SDS011;10381;53.730;10.010;2022-12-07T09:06:49;424.40;;;385.20;;
20443;SDS011;10381;53.730;10.010;2022-12-07T09:10:50;399.38;;;362.55;;
20443;SDS011;10381;53.730;10.010;2022-12-07T09:14:50;387.70;;;351.80;;
20443;SDS011;10381;53.730;10.010;2022-12-07T09:18:50;389.00;;;353.37;;
20443;SDS011;10381;53.730;10.010;2022-12-07T09:22:51;402.47;;;364.77;;
20443;SDS011;10381;53.730;10.010;2022-12-07T09:26:51;397.85;;;360.63;;
20443;SDS011;10381;53.730;10.010;2022-12-07T09:30:52;407.00;;;368.77;;
20443;SDS011;10381;53.730;10.010;2022-12-07T09:34:52;383.35;;;347.17;;
20443;SDS011;10381;53.730;10.010;2022-12-07T09:38:52;353.75;;;319.80;;
20443;SDS011;10381;53.730;10.010;2022-12-07T09:42:53;322.50;;;291.45;;
20443;SDS011;10381;53.730;10.010;2022-12-07T09:46:55;347.42;;;311.98;;
20443;SDS011;10381;53.730;10.010;2022-12-07T09:50:57;333.65;;;300.38;;
20443;SDS011;10381;53.730;10.010;2022-12-07T09:54:59;321.45;;;289.65;;
20443;SDS011;10381;53.730;10.010;2022-12-07T09:59:00;319.73;;;287.92;;
20443;SDS011;10381;53.730;10.010;2022-12-07T10:03:02;315.88;;;284.13;;
20443;SDS011;10381;53.730;10.010;2022-12-07T10:07:02;318.00;;;286.55;;
20443;SDS011;10381;53.730;10.010;2022-12-07T10:11:03;321.95;;;290.40;;
20443;SDS011;10381;53.730;10.010;2022-12-07T10:15:04;317.17;;;284.02;;
20443;SDS011;10381;53.730;10.010;2022-12-07T10:23:36;317.15;;;283.25;;
20443;SDS011;10381;53.730;10.010;2022-12-07T10:27:39;297.55;;;267.08;;
20443;SDS011;10381;53.730;10.010;2022-12-07T10:31:39;320.47;;;286.87;;
20443;SDS011;10381;53.730;10.010;2022-12-07T10:35:42;317.27;;;284.70;;
20443;SDS011;10381;53.730;10.010;2022-12-07T10:39:44;315.02;;;281.88;;
20443;SDS011;10381;53.730;10.010;2022-12-07T10:43:52;315.73;;;283.00;;
20443;SDS011;10381;53.730;10.010;2022-12-07T10:48:03;303.13;;;271.25;;
20443;SDS011;10381;53.730;10.010;2022-12-07T10:52:18;297.02;;;266.25;;
20443;SDS011;10381;53.730;10.010;2022-12-07T11:13:43;272.75;;;245.13;;
20443;SDS011;10381;53.730;10.010;2022-12-07T11:18:01;259.38;;;234.40;;
20443;SDS011;10381;53.730;10.010;2022-12-07T11:22:15;254.23;;;230.38;;
20443;SDS011;10381;53.730;10.010;2022-12-07T11:26:31;242.60;;;219.00;;
20443;SDS011;10381;53.730;10.010;2022-12-07T11:30:54;228.70;;;207.77;;
20443;SDS011;10381;53.730;10.010;2022-12-07T11:39:25;210.25;;;191.60;;
20443;SDS011;10381;53.730;10.010;2022-12-07T11:43:32;185.23;;;169.02;;
20443;SDS011;10381;53.730;10.010;2022-12-07T11:47:41;147.45;;;133.20;;
20443;SDS011;10381;53.730;10.010;2022-12-07T11:51:48;107.43;;;97.43;;
20443;SDS011;10381;53.730;10.010;2022-12-07T11:55:53;77.63;;;70.80;;
20443;SDS011;10381;53.730;10.010;2022-12-07T12:00:05;52.53;;;47.85;;
20443;SDS011;10381;53.730;10.010;2022-12-07T12:04:35;33.65;;;30.10;;
20443;SDS011;10381;53.730;10.010;2022-12-07T12:08:43;22.75;;;20.42;;
20443;SDS011;10381;53.730;10.010;2022-12-07T12:13:11;14.82;;;13.52;;
20443;SDS011;10381;53.730;10.010;2022-12-07T12:17:25;13.75;;;11.23;;
20443;SDS011;10381;53.730;10.010;2022-12-07T12:21:48;14.27;;;11.82;;
20443;SDS011;10381;53.730;10.010;2022-12-07T12:25:54;14.05;;;12.20;;
20443;SDS011;10381;53.730;10.010;2022-12-07T12:29:59;17.45;;;11.48;;
20443;SDS011;10381;53.730;10.010;2022-12-07T12:34:03;19.08;;;11.57;;
20443;SDS011;10381;53.730;10.010;2022-12-07T12:38:24;10.75;;;9.95;;
20443;SDS011;10381;53.730;10.010;2022-12-07T12:42:43;13.07;;;10.38;;
20443;SDS011;10381;53.730;10.010;2022-12-07T12:46:57;11.55;;;10.35;;
20443;SDS011;10381;53.730;10.010;2022-12-07T12:56:27;10.93;;;9.68;;
20443;SDS011;10381;53.730;10.010;2022-12-07T13:08:26;9.45;;;8.70;;
20443;SDS011;10381;53.730;10.010;2022-12-07T13:12:28;8.82;;;8.20;;
20443;SDS011;10381;53.730;10.010;2022-12-07T13:16:38;9.23;;;8.43;;
20443;SDS011;10381;53.730;10.010;2022-12-07T13:20:45;14.93;;;8.60;;
20443;SDS011;10381;53.730;10.010;2022-12-07T13:24:49;10.32;;;9.32;;
20443;SDS011;10381;53.730;10.010;2022-12-07T13:29:12;11.85;;;8.95;;
20443;SDS011;10381;53.730;10.010;2022-12-07T13:33:15;8.80;;;8.10;;
20443;SDS011;10381;53.730;10.010;2022-12-07T13:37:24;10.15;;;9.23;;
20443;SDS011;10381;53.730;10.010;2022-12-07T13:41:27;10.38;;;9.38;;
20443;SDS011;10381;53.730;10.010;2022-12-07T13:45:30;10.88;;;9.80;;
20443;SDS011;10381;53.730;10.010;2022-12-07T13:49:49;10.35;;;9.55;;
20443;SDS011;10381;53.730;10.010;2022-12-07T13:54:09;10.75;;;9.25;;
20443;SDS011;10381;53.730;10.010;2022-12-07T13:58:10;11.27;;;9.88;;
20443;SDS011;10381;53.730;10.010;2022-12-07T14:06:26;10.32;;;9.50;;
20443;SDS011;10381;53.730;10.010;2022-12-07T14:10:28;11.35;;;10.43;;
20443;SDS011;10381;53.730;10.010;2022-12-07T14:14:30;15.60;;;10.70;;
20443;SDS011;10381;53.730;10.010;2022-12-07T14:18:39;13.00;;;10.45;;
20443;SDS011;10381;53.730;10.010;2022-12-07T14:22:40;11.38;;;10.48;;
20443;SDS011;10381;53.730;10.010;2022-12-07T14:26:40;13.98;;;11.00;;
20443;SDS011;10381;53.730;10.010;2022-12-07T14:30:41;14.10;;;10.32;;
20443;SDS011;10381;53.730;10.010;2022-12-07T14:34:41;11.80;;;10.63;;
20443;SDS011;10381;53.730;10.010;2022-12-07T14:38:41;11.00;;;10.20;;
20443;SDS011;10381;53.730;10.010;2022-12-07T14:42:42;12.10;;;10.93;;
20443;SDS011;10381;53.730;10.010;2022-12-07T14:46:43;13.45;;;12.15;;
20443;SDS011;10381;53.730;10.010;2022-12-07T14:50:44;15.97;;;13.37;;
20443;SDS011;10381;53.730;10.010;2022-12-07T14:54:49;14.55;;;11.75;;
20443;SDS011;10381;53.730;10.010;2022-12-07T14:58:49;12.70;;;11.37;;
20443;SDS011;10381;53.730;10.010;2022-12-07T15:02:49;26.23;;;11.70;;
20443;SDS011;10381;53.730;10.010;2022-12-07T15:07:01;15.20;;;11.07;;
20443;SDS011;10381;53.730;10.010;2022-12-07T15:11:02;13.98;;;12.70;;
20443;SDS011;10381;53.730;10.010;2022-12-07T15:15:03;12.73;;;11.63;;
20443;SDS011;10381;53.730;10.010;2022-12-07T15:19:04;14.48;;;12.45;;
20443;SDS011;10381;53.730;10.010;2022-12-07T15:23:04;14.68;;;13.27;;
20443;SDS011;10381;53.730;10.010;2022-12-07T15:27:05;23.80;;;16.73;;
20443;SDS011;10381;53.730;10.010;2022-12-07T15:31:10;15.15;;;12.55;;
20443;SDS011;10381;53.730;10.010;2022-12-07T15:35:15;23.60;;;15.65;;
20443;SDS011;10381;53.730;10.010;2022-12-07T15:39:15;39.15;;;21.67;;
20443;SDS011;10381;53.730;10.010;2022-12-07T15:43:16;44.40;;;24.10;;
20443;SDS011;10381;53.730;10.010;2022-12-07T15:47:39;30.35;;;20.17;;
20443;SDS011;10381;53.730;10.010;2022-12-07T15:51:41;29.30;;;19.23;;
20443;SDS011;10381;53.730;10.010;2022-12-07T15:55:42;20.52;;;17.40;;
20443;SDS011;10381;53.730;10.010;2022-12-07T15:59:43;22.13;;;19.77;;
20443;SDS011;10381;53.730;10.010;2022-12-07T16:03:43;24.17;;;20.20;;
20443;SDS011;10381;53.730;10.010;2022-12-07T16:07:44;22.23;;;19.92;;
20443;SDS011;10381;53.730;10.010;2022-12-07T16:11:46;21.20;;;18.88;;
20443;SDS011;10381;53.730;10.010;2022-12-07T16:15:46;22.03;;;20.00;;
20443;SDS011;10381;53.730;10.010;2022-12-07T16:19:47;18.35;;;16.73;;
20443;SDS011;10381;53.730;10.010;2022-12-07T16:23:47;25.23;;;20.75;;
20443;SDS011;10381;53.730;10.010;2022-12-07T16:27:47;76.77;;;37.97;;
20443;SDS011;10381;53.730;10.010;2022-12-07T16:31:48;47.38;;;30.50;;
20443;SDS011;10381;53.730;10.010;2022-12-07T16:35:50;35.08;;;26.00;;
20443;SDS011;10381;53.730;10.010;2022-12-07T16:39:50;35.83;;;23.87;;
20443;SDS011;10381;53.730;10.010;2022-12-07T16:43:51;32.42;;;24.17;;
20443;SDS011;10381;53.730;10.010;2022-12-07T16:47:51;31.13;;;22.08;;
20443;SDS011;10381;53.730;10.010;2022-12-07T16:51:52;32.58;;;21.73;;
20443;SDS011;10381;53.730;10.010;2022-12-07T16:55:52;24.40;;;19.10;;
20443;SDS011;10381;53.730;10.010;2022-12-07T16:59:52;36.65;;;22.38;;
20443;SDS011;10381;53.730;10.010;2022-12-07T17:03:53;28.30;;;21.43;;
20443;SDS011;10381;53.730;10.010;2022-12-07T17:07:53;31.35;;;24.20;;
20443;SDS011;10381;53.730;10.010;2022-12-07T17:11:55;35.40;;;26.83;;
20443;SDS011;10381;53.730;10.010;2022-12-07T17:15:59;36.33;;;27.60;;
20443;SDS011;10381;53.730;10.010;2022-12-07T17:20:01;37.30;;;30.08;;
20443;SDS011;10381;53.730;10.010;2022-12-07T17:24:03;47.92;;;33.30;;
20443;SDS011;10381;53.730;10.010;2022-12-07T17:28:05;35.15;;;31.23;;
20443;SDS011;10381;53.730;10.010;2022-12-07T17:32:06;40.45;;;34.55;;
20443;SDS011;10381;53.730;10.010;2022-12-07T17:36:13;41.97;;;37.57;;
20443;SDS011;10381;53.730;10.010;2022-12-07T17:40:18;40.47;;;35.53;;
20443;SDS011;10381;53.730;10.010;2022-12-07T17:44:18;43.23;;;36.73;;
20443;SDS011;10381;53.730;10.010;2022-12-07T17:48:20;41.83;;;35.28;;
20443;SDS011;10381;53.730;10.010;2022-12-07T17:52:20;31.90;;;27.30;;
20443;SDS011;10381;53.730;10.010;2022-12-07T17:56:39;66.30;;;38.30;;
20443;SDS011;10381;53.730;10.010;2022-12-07T18:00:39;218.63;;;93.18;;
20443;SDS011;10381;53.730;10.010;2022-12-07T18:04:41;99.40;;;55.38;;
20443;SDS011;10381;53.730;10.010;2022-12-07T18:08:41;76.60;;;50.10;;
20443;SDS011;10381;53.730;10.010;2022-12-07T18:12:42;66.40;;;47.00;;
20443;SDS011;10381;53.730;10.010;2022-12-07T18:16:42;65.00;;;41.33;;
20443;SDS011;10381;53.730;10.010;2022-12-07T18:20:43;63.05;;;43.92;;
20443;SDS011;10381;53.730;10.010;2022-12-07T18:24:43;46.70;;;41.67;;
20443;SDS011;10381;53.730;10.010;2022-12-07T18:28:43;48.80;;;43.90;;
20443;SDS011;10381;53.730;10.010;2022-12-07T18:32:44;56.35;;;50.45;;
20443;SDS011;10381;53.730;10.010;2022-12-07T18:36:46;58.43;;;52.30;;
20443;SDS011;10381;53.730;10.010;2022-12-07T18:40:49;60.20;;;49.35;;
20443;SDS011;10381;53.730;10.010;2022-12-07T18:44:49;55.80;;;49.63;;
20443;SDS011;10381;53.730;10.010;2022-12-07T18:48:49;65.70;;;48.00;;
20443;SDS011;10381;53.730;10.010;2022-12-07T18:52:50;55.78;;;50.13;;
20443;SDS011;10381;53.730;10.010;2022-12-07T18:56:50;59.80;;;50.90;;
20443;SDS011;10381;53.730;10.010;2022-12-07T19:00:51;60.22;;;54.13;;
20443;SDS011;10381;53.730;10.010;2022-12-07T19:04:53;64.80;;;56.40;;
20443;SDS011;10381;53.730;10.010;2022-12-07T19:08:54;65.33;;;58.70;;
20443;SDS011;10381;53.730;10.010;2022-12-07T19:12:55;63.28;;;57.55;;
20443;SDS011;10381;53.730;10.010;2022-12-07T19:16:56;70.00;;;63.07;;
20443;SDS011;10381;53.730;10.010;2022-12-07T19:21:01;79.25;;;71.40;;
20443;SDS011;10381;53.730;10.010;2022-12-07T19:25:02;87.20;;;79.07;;
20443;SDS011;10381;53.730;10.010;2022-12-07T19:29:04;75.13;;;67.28;;
20443;SDS011;10381;53.730;10.010;2022-12-07T19:33:04;78.43;;;71.00;;
20443;SDS011;10381;53.730;10.010;2022-12-07T19:37:05;75.78;;;68.13;;
20443;SDS011;10381;53.730;10.010;2022-12-07T19:41:06;78.50;;;71.13;;
20443;SDS011;10381;53.730;10.010;2022-12-07T19:45:32;82.15;;;74.22;;
20443;SDS011;10381;53.730;10.010;2022-12-07T19:49:34;87.97;;;79.65;;
20443;SDS011;10381;53.730;10.010;2022-12-07T19:53:35;91.25;;;82.45;;
20443;SDS011;10381;53.730;10.010;2022-12-07T19:57:35;100.40;;;89.90;;
20443;SDS011;10381;53.730;10.010;2022-12-07T20:01:35;106.67;;;95.23;;
20443;SDS011;10381;53.730;10.010;2022-12-07T20:05:36;104.32;;;93.90;;
20443;SDS011;10381;53.730;10.010;2022-12-07T20:09:37;105.65;;;94.85;;
20443;SDS011;10381;53.730;10.010;2022-12-07T20:13:37;106.35;;;95.78;;
20443;SDS011;10381;53.730;10.010;2022-12-07T20:17:37;112.90;;;101.03;;
20443;SDS011;10381;53.730;10.010;2022-12-07T20:21:39;103.97;;;93.40;;
20443;SDS011;10381;53.730;10.010;2022-12-07T20:25:41;111.90;;;100.55;;
20443;SDS011;10381;53.730;10.010;2022-12-07T20:29:41;119.20;;;106.90;;
20443;SDS011;10381;53.730;10.010;2022-12-07T20:33:43;120.80;;;107.88;;
20443;SDS011;10381;53.730;10.010;2022-12-07T20:37:47;121.10;;;106.20;;
20443;SDS011;10381;53.730;10.010;2022-12-07T20:41:47;132.30;;;106.43;;
20443;SDS011;10381;53.730;10.010;2022-12-07T20:46:06;118.43;;;105.75;;
20443;SDS011;10381;53.730;10.010;2022-12-07T20:50:10;123.18;;;109.90;;
20443;SDS011;10381;53.730;10.010;2022-12-07T20:54:11;124.63;;;112.07;;
20443;SDS011;10381;53.730;10.010;2022-12-07T20:58:12;131.82;;;118.55;;
20443;SDS011;10381;53.730;10.010;2022-12-07T21:02:12;137.87;;;123.43;;
20443;SDS011;10381;53.730;10.010;2022-12-07T21:06:16;144.02;;;129.55;;
20443;SDS011;10381;53.730;10.010;2022-12-07T21:10:17;144.93;;;130.38;;
20443;SDS011;10381;53.730;10.010;2022-12-07T21:14:17;154.32;;;138.57;;
20443;SDS011;10381;53.730;10.010;2022-12-07T21:18:17;148.33;;;133.07;;
20443;SDS011;10381;53.730;10.010;2022-12-07T21:22:18;162.00;;;144.95;;
20443;SDS011;10381;53.730;10.010;2022-12-07T21:26:19;153.90;;;135.90;;
20443;SDS011;10381;53.730;10.010;2022-12-07T21:30:21;164.60;;;147.73;;
20443;SDS011;10381;53.730;10.010;2022-12-07T21:34:21;166.73;;;148.63;;
20443;SDS011;10381;53.730;10.010;2022-12-07T21:38:22;179.85;;;162.35;;
20443;SDS011;10381;53.730;10.010;2022-12-07T21:42:22;190.68;;;173.05;;
20443;SDS011;10381;53.730;10.010;2022-12-07T21:46:25;198.05;;;179.27;;
20443;SDS011;10381;53.730;10.010;2022-12-07T21:50:28;201.32;;;181.32;;
20443;SDS011;10381;53.730;10.010;2022-12-07T21:54:28;205.82;;;186.15;;
20443;SDS011;10381;53.730;10.010;2022-12-07T21:58:29;211.82;;;190.82;;
20443;SDS011;10381;53.730;10.010;2022-12-07T22:02:30;227.27;;;205.52;;
20443;SDS011;10381;53.730;10.010;2022-12-07T22:06:31;240.50;;;217.63;;
20443;SDS011;10381;53.730;10.010;2022-12-07T22:10:33;238.60;;;214.93;;
20443;SDS011;10381;53.730;10.010;2022-12-07T22:14:33;263.77;;;237.93;;
20443;SDS011;10381;53.730;10.010;2022-12-07T22:18:52;291.88;;;263.92;;
20443;SDS011;10381;53.730;10.010;2022-12-07T22:22:53;298.15;;;269.20;;
20443;SDS011;10381;53.730;10.010;2022-12-07T22:26:53;333.37;;;301.10;;
20443;SDS011;10381;53.730;10.010;2022-12-07T22:30:54;339.92;;;306.10;;
20443;SDS011;10381;53.730;10.010;2022-12-07T22:35:00;360.90;;;324.38;;
20443;SDS011;10381;53.730;10.010;2022-12-07T22:39:01;378.70;;;339.88;;
20443;SDS011;10381;53.730;10.010;2022-12-07T22:43:01;384.67;;;344.67;;
20443;SDS011;10381;53.730;10.010;2022-12-07T22:47:01;429.33;;;385.00;;
20443;SDS011;10381;53.730;10.010;2022-12-07T22:51:02;487.42;;;437.20;;
20443;SDS011;10381;53.730;10.010;2022-12-07T22:55:02;544.00;;;489.70;;
20443;SDS011;10381;53.730;10.010;2022-12-07T22:59:03;589.83;;;532.47;;
20443;SDS011;10381;53.730;10.010;2022-12-07T23:03:05;628.70;;;568.25;;
20443;SDS011;10381;53.730;10.010;2022-12-07T23:07:06;647.65;;;586.15;;
20443;SDS011;10381;53.730;10.010;2022-12-07T23:11:13;661.73;;;599.27;;
20443;SDS011;10381;53.730;10.010;2022-12-07T23:15:35;663.33;;;600.85;;
20443;SDS011;10381;53.730;10.010;2022-12-07T23:19:36;673.30;;;609.50;;
20443;SDS011;10381;53.730;10.010;2022-12-07T23:23:37;685.83;;;620.95;;
20443;SDS011;10381;53.730;10.010;2022-12-07T23:27:37;707.50;;;640.70;;
20443;SDS011;10381;53.730;10.010;2022-12-07T23:31:37;736.10;;;668.33;;
20443;SDS011;10381;53.730;10.010;2022-12-07T23:35:38;751.22;;;681.70;;
20443;SDS011;10381;53.730;10.010;2022-12-07T23:39:38;764.53;;;693.97;;
20443;SDS011;10381;53.730;10.010;2022-12-07T23:43:38;799.50;;;725.63;;
20443;SDS011;10381;53.730;10.010;2022-12-07T23:47:39;826.45;;;749.13;;
20443;SDS011;10381;53.730;10.010;2022-12-07T23:51:40;846.23;;;766.40;;
20443;SDS011;10381;53.730;10.010;2022-12-07T23:55:43;842.20;;;761.83;;
20443;SDS011;10381;53.730;10.010;2022-12-07T23:59:44;864.28;;;780.13;;
